Time;durP1;ratioP1;P1;durP2;ratioP2;P2;SDS_P1;SDS_P2;PMS_P1;PMS_P2;Temp;Humidity;BMP_temperature;BMP_pressure;BME280_temperature;BME280_humidity;BME280_pressure;Samples;Min_cycle;Max_cycle;Signal;HPM_P1;HPM_P2
2022/08/04 00:00:14;;;;;;;23.00;9.80;;;;;;;18.29;56.44;99278.21;107988;1274;97054;-68
2022/08/04 00:03:17;;;;;;;28.40;11.30;;;;;;;18.24;56.62;99274.38;107935;1274;110386;-68
2022/08/04 00:06:24;;;;;;;18.60;8.30;;;;;;;18.23;56.48;99273.64;107977;1274;97052;-67
2022/08/04 00:08:57;;;;;;;18.00;6.60;;;;;;;18.17;56.45;99269.55;107656;1274;97185;-67
2022/08/04 00:11:30;;;;;;;22.90;10.10;;;;;;;18.12;56.69;99274.00;107971;1274;112614;-66
2022/08/04 00:14:14;;;;;;;19.80;8.80;;;;;;;18.09;56.67;99272.71;107975;1274;97026;-67
2022/08/04 00:16:45;;;;;;;14.10;6.00;;;;;;;18.05;56.71;99272.71;107956;1274;107921;-66
2022/08/04 00:19:22;;;;;;;17.60;7.50;;;;;;;18.00;56.57;99273.95;107974;1274;97071;-67
2022/08/04 00:22:01;;;;;;;23.10;11.00;;;;;;;17.96;56.86;99270.38;107983;1274;97308;-67
2022/08/04 00:24:30;;;;;;;22.80;11.20;;;;;;;17.93;56.92;99267.74;107869;1274;114073;-67
2022/08/04 00:26:59;;;;;;;25.00;11.10;;;;;;;17.93;57.07;99269.79;107996;1274;97010;-67
2022/08/04 00:29:27;;;;;;;21.20;10.40;;;;;;;17.90;57.06;99268.44;107963;1274;107941;-67
2022/08/04 00:31:55;;;;;;;22.70;10.60;;;;;;;17.86;57.07;99269.55;107841;1274;96991;-67
2022/08/04 00:34:27;;;;;;;21.50;9.30;;;;;;;17.82;57.20;99268.71;107994;1272;96980;-68
2022/08/04 00:36:57;;;;;;;17.50;7.90;;;;;;;17.79;57.12;99266.80;107977;1274;112800;-68
2022/08/04 00:39:26;;;;;;;18.80;7.40;;;;;;;17.75;57.28;99263.85;107857;1274;97069;-67
2022/08/04 00:42:09;;;;;;;20.50;6.90;;;;;;;17.72;57.26;99267.76;107894;1275;107894;-67
2022/08/04 00:44:39;;;;;;;15.10;6.20;;;;;;;17.69;57.35;99264.42;107963;1274;97011;-67
2022/08/04 00:47:39;;;;;;;15.00;6.30;;;;;;;17.65;57.44;99269.64;108006;1274;96933;-67
2022/08/04 00:50:23;;;;;;;15.00;6.30;;;;;;;17.62;57.65;99271.02;107817;1277;112841;-67
2022/08/04 00:53:01;;;;;;;16.10;5.80;;;;;;;17.58;57.58;99267.48;107843;1277;96996;-67
2022/08/04 00:55:47;;;;;;;13.70;6.00;;;;;;;17.54;57.57;99270.20;107984;1274;107932;-66
2022/08/04 00:58:27;;;;;;;14.50;5.20;;;;;;;17.49;57.67;99268.34;107994;1274;96932;-66
2022/08/04 01:01:02;;;;;;;14.40;5.30;;;;;;;17.43;57.77;99268.02;107992;1274;96917;-66
2022/08/04 01:03:56;;;;;;;14.00;5.80;;;;;;;17.39;57.72;99268.79;107960;1274;114271;-67
2022/08/04 01:06:40;;;;;;;14.20;5.80;;;;;;;17.32;57.84;99269.45;107976;1274;97042;-67
2022/08/04 01:09:25;;;;;;;;;;;;;;;17.28;57.75;99273.66;107989;1274;107877;-67
2022/08/04 01:12:06;;;;;;;14.40;5.50;;;;;;;17.19;58.00;99273.73;107973;1274;97073;-67
2022/08/04 01:14:53;;;;;;;12.60;5.70;;;;;;;17.13;57.93;99274.17;108000;1274;96995;-67
2022/08/04 01:17:38;;;;;;;15.40;6.10;;;;;;;17.08;58.05;99270.89;107870;1276;113046;-67
2022/08/04 01:20:08;;;;;;;14.40;5.70;;;;;;;17.05;57.97;99278.16;107877;1275;97053;-66
2022/08/04 01:23:07;;;;;;;15.30;6.10;;;;;;;17.02;58.00;99283.66;107849;1275;107539;-67
2022/08/04 01:26:04;;;;;;;14.50;6.50;;;;;;;16.97;58.08;99283.36;107874;1275;97014;-67
2022/08/04 01:29:12;;;;;;;15.50;6.90;;;;;;;16.91;58.31;99278.96;107867;1276;96939;-67
2022/08/04 01:32:06;;;;;;;15.50;6.10;;;;;;;16.91;58.34;99281.50;107866;1276;112838;-67
2022/08/04 01:34:48;;;;;;;14.10;6.40;;;;;;;16.90;58.28;99286.77;107897;1277;97005;-67
2022/08/04 01:37:31;;;;;;;13.60;6.50;;;;;;;16.87;58.59;99285.08;107785;1276;107900;-67
2022/08/04 01:40:03;;;;;;;16.40;6.90;;;;;;;16.84;58.58;99282.46;107973;1274;97016;-66
2022/08/04 01:42:33;;;;;;;14.40;6.70;;;;;;;16.79;58.43;99286.32;107998;1274;97067;-67
2022/08/04 01:45:05;;;;;;;15.90;6.30;;;;;;;16.74;58.67;99286.58;107973;1274;111832;-66
2022/08/04 01:47:35;;;;;;;16.60;6.70;;;;;;;16.73;58.66;99280.80;107895;1276;97042;-67
2022/08/04 01:50:07;;;;;;;18.60;6.70;;;;;;;16.73;58.77;99280.48;107951;1274;107530;-67
2022/08/04 01:52:37;;;;;;;14.70;6.80;;;;;;;16.68;58.51;99281.16;107958;1274;96958;-67
2022/08/04 01:55:11;;;;;;;19.10;7.80;;;;;;;16.57;58.69;99274.64;107943;1276;96912;-67
2022/08/04 01:57:44;;;;;;;18.60;7.50;;;;;;;16.52;58.87;99276.76;107905;1274;112654;-67
2022/08/04 02:00:14;;;;;;;19.30;8.50;;;;;;;16.46;58.71;99276.06;107911;1275;97031;-67
2022/08/04 02:02:45;;;;;;;19.30;8.00;;;;;;;16.37;58.66;99277.55;107872;1276;107726;-66
2022/08/04 02:05:15;;;;;;;16.20;7.40;;;;;;;16.30;59.11;99279.48;107954;1274;96962;-66
2022/08/04 02:08:07;;;;;;;18.20;8.40;;;;;;;16.27;58.81;99280.09;107973;1274;97000;-66
2022/08/04 02:10:41;;;;;;;19.00;8.80;;;;;;;16.15;58.84;99281.05;107976;1274;112522;-67
2022/08/04 02:13:22;;;;;;;;;;;;;;;16.01;59.23;99282.52;107906;1275;96967;-66
2022/08/04 02:15:57;;;;;;;18.80;7.70;;;;;;;15.94;59.13;99283.33;107886;1275;107855;-66
2022/08/04 02:19:05;;;;;;;18.60;8.30;;;;;;;15.86;59.26;99280.05;107973;1274;97038;-67
2022/08/04 02:21:44;;;;;;;17.70;8.30;;;;;;;15.77;59.12;99281.27;107489;1274;98545;-68
2022/08/04 02:24:15;;;;;;;16.10;7.20;;;;;;;15.68;59.28;99278.30;107873;1275;112775;-67
2022/08/04 02:26:48;;;;;;;17.40;7.70;;;;;;;15.61;59.16;99278.71;107970;1274;97021;-67
2022/08/04 02:29:19;;;;;;;;;;;;;;;15.48;59.18;99275.59;107995;1274;107819;-68
2022/08/04 02:32:02;;;;;;;17.10;7.70;;;;;;;15.33;59.39;99275.50;107979;1274;96943;-67
2022/08/04 02:34:51;;;;;;;17.40;8.10;;;;;;;15.29;59.69;99273.91;108000;1274;96994;-67
2022/08/04 02:37:23;;;;;;;17.50;7.90;;;;;;;15.31;60.14;99270.50;107968;1274;112864;-65
2022/08/04 02:39:52;;;;;;;16.60;8.10;;;;;;;15.36;60.14;99270.60;107989;1274;97033;-66
2022/08/04 02:42:20;;;;;;;16.80;7.50;;;;;;;15.39;60.30;99266.38;107969;1274;107717;-66
2022/08/04 02:44:50;;;;;;;15.10;7.10;;;;;;;15.43;60.51;99260.64;107974;1274;96959;-66
2022/08/04 02:47:20;;;;;;;16.20;7.80;;;;;;;15.50;60.59;99260.77;107985;1274;96938;-66
2022/08/04 02:49:50;;;;;;;15.50;7.10;;;;;;;15.56;60.65;99264.94;107971;1274;112907;-66
2022/08/04 02:52:19;;;;;;;15.70;7.20;;;;;;;15.59;60.67;99265.29;107913;1277;97396;-67
2022/08/04 02:54:52;;;;;;;12.80;6.40;;;;;;;15.61;60.56;99269.05;107967;1274;107811;-67
2022/08/04 02:57:23;;;;;;;14.60;6.40;;;;;;;15.61;60.69;99272.86;107972;1274;96960;-66
2022/08/04 03:00:08;;;;;;;12.60;5.80;;;;;;;15.64;60.57;99269.59;107994;1274;96980;-66
2022/08/04 03:02:57;;;;;;;13.30;5.90;;;;;;;15.62;60.43;99264.92;107892;1276;113055;-67
2022/08/04 03:05:32;;;;;;;16.10;6.40;;;;;;;15.61;60.52;99272.12;107910;1276;97041;-66
2022/08/04 03:08:37;;;;;;;11.60;5.80;;;;;;;15.59;60.55;99268.20;107971;1274;107308;-65
2022/08/04 03:11:43;;;;;;;15.80;6.40;;;;;;;15.55;60.67;99269.86;107959;1274;97096;-67
2022/08/04 03:14:20;;;;;;;13.70;6.00;;;;;;;15.49;60.99;99264.14;107910;1276;97005;-67
2022/08/04 03:16:58;;;;;;;12.20;5.80;;;;;;;15.53;61.18;99268.34;107998;1274;112605;-67
2022/08/04 03:19:57;;;;;;;14.20;6.20;;;;;;;15.59;61.19;99270.14;107984;1273;96977;-67
2022/08/04 03:22:32;;;;;;;13.70;6.10;;;;;;;15.60;61.30;99266.61;107908;1276;107968;-67
2022/08/04 03:25:21;;;;;;;17.60;6.40;;;;;;;15.66;61.13;99274.05;107882;1275;96996;-67
2022/08/04 03:28:11;;;;;;;15.50;6.40;;;;;;;15.63;61.38;99267.47;108007;1274;96938;-67
2022/08/04 03:31:08;;;;;;;13.80;6.00;;;;;;;15.71;61.52;99273.52;107960;1273;112857;-67
2022/08/04 03:33:43;;;;;;;15.10;5.90;;;;;;;15.75;61.41;99276.79;107880;1275;97056;-67
2022/08/04 03:36:47;;;;;;;11.80;5.80;;;;;;;15.75;61.51;99277.83;107895;1276;107690;-66
2022/08/04 03:39:33;;;;;;;;;;;;;;;15.78;61.55;99282.95;107990;1274;96975;-65
2022/08/04 03:42:18;;;;;;;19.50;6.30;;;;;;;15.77;61.75;99284.77;107976;1274;96932;-66
2022/08/04 03:45:04;;;;;;;14.50;6.60;;;;;;;15.80;61.71;99289.90;107974;1274;112742;-65
2022/08/04 03:48:23;;;;;;;13.50;6.20;;;;;;;15.82;61.70;99284.76;107995;1274;97067;-66
2022/08/04 03:54:18;;;;;;;12.90;6.50;;;;;;;15.80;61.74;99280.61;107890;1276;97020;-67
2022/08/04 03:57:04;;;;;;;13.70;6.40;;;;;;;15.82;61.81;99283.09;108004;1274;96900;-67
2022/08/04 03:59:40;;;;;;;11.10;5.70;;;;;;;15.83;61.54;99282.88;107985;1274;112833;-67
2022/08/04 04:02:45;;;;;;;15.10;6.90;;;;;;;15.71;61.23;99281.91;107984;1274;96940;-66
2022/08/04 04:05:41;;;;;;;15.00;6.20;;;;;;;15.56;61.43;99288.48;107940;1274;107809;-67
2022/08/04 04:08:58;;;;;;;12.70;5.80;;;;;;;15.48;61.53;99292.25;107879;1276;97011;-67
2022/08/04 04:11:33;;;;;;;11.50;6.10;;;;;;;15.47;61.62;99297.52;107956;1274;96955;-66
2022/08/04 04:15:00;;;;;;;13.50;5.80;;;;;;;15.45;61.74;99299.30;107842;1276;112854;-66
2022/08/04 04:18:13;;;;;;;13.20;6.20;;;;;;;15.44;62.02;99301.84;107949;1274;97085;-66
2022/08/04 04:20:55;;;;;;;14.60;5.60;;;;;;;15.49;61.98;99307.71;107949;1274;107831;-67
2022/08/04 04:23:46;;;;;;;13.90;5.80;;;;;;;15.49;62.11;99303.23;107831;1276;96997;-68
2022/08/04 04:26:35;;;;;;;16.70;5.70;;;;;;;15.53;62.38;99307.91;107850;1276;96888;-64
2022/08/04 04:29:47;;;;;;;13.80;6.00;;;;;;;15.56;62.48;99301.01;107839;1275;112680;-65
2022/08/04 04:32:52;;;;;;;12.30;6.20;;;;;;;15.63;62.84;99301.45;107946;1274;97030;-64
2022/08/04 04:35:39;;;;;;;15.70;5.90;;;;;;;15.72;62.78;99304.02;107845;1275;107837;-65
2022/08/04 04:38:28;;;;;;;15.10;6.20;;;;;;;15.78;62.62;99307.73;107937;1274;97065;-66
2022/08/04 04:41:14;;;;;;;21.80;6.80;;;;;;;15.81;62.54;99312.41;107881;1275;97042;-67
2022/08/04 04:44:07;;;;;;;14.70;7.50;;;;;;;15.75;62.48;99306.42;107977;1274;112947;-68
2022/08/04 04:46:59;;;;;;;17.80;7.40;;;;;;;15.78;62.84;99316.14;107885;1275;97007;-68
2022/08/04 04:49:33;;;;;;;17.10;7.30;;;;;;;15.82;62.83;99313.38;107944;1274;107853;-68
2022/08/04 04:52:22;;;;;;;18.90;7.60;;;;;;;15.86;63.02;99318.38;107857;1275;97038;-68
2022/08/04 04:55:11;;;;;;;16.60;7.30;;;;;;;15.92;63.03;99318.15;107970;1274;97001;-67
2022/08/04 04:57:41;;;;;;;16.50;7.80;;;;;;;15.99;63.13;99322.04;107875;1275;112928;-68
2022/08/04 05:00:39;;;;;;;20.00;9.50;;;;;;;16.05;63.14;99318.60;107945;1272;97030;-68
2022/08/04 05:03:38;;;;;;;18.10;8.10;;;;;;;16.13;63.29;99320.44;107806;1276;107832;-68
2022/08/04 05:06:25;;;;;;;20.00;8.80;;;;;;;16.18;63.18;99317.42;107888;1275;97033;-68
2022/08/04 05:09:11;;;;;;;17.30;7.60;;;;;;;16.29;63.35;99320.86;107872;1275;97091;-68
2022/08/04 05:12:12;;;;;;;17.20;7.90;;;;;;;16.37;63.33;99322.98;107883;1276;112908;-68
2022/08/04 05:15:04;;;;;;;17.00;8.50;;;;;;;16.46;63.41;99320.48;107977;1274;97032;-68
2022/08/04 05:17:48;;;;;;;15.90;6.60;;;;;;;16.56;63.53;99326.77;107882;1276;106210;-68
2022/08/04 05:20:25;;;;;;;17.80;7.70;;;;;;;16.66;63.49;99324.45;107794;1274;96995;-69
2022/08/04 05:23:09;;;;;;;12.90;6.00;;;;;;;16.74;63.38;99328.15;107920;1274;96946;-69
2022/08/04 05:25:48;;;;;;;12.50;5.60;;;;;;;16.84;63.57;99330.85;107858;1275;112769;-68
2022/08/04 05:28:37;;;;;;;13.40;5.80;;;;;;;16.93;63.40;99326.20;107961;1274;97043;-68
2022/08/04 05:31:10;;;;;;;10.50;5.70;;;;;;;17.02;63.46;99328.34;107963;1274;107692;-66
2022/08/04 05:33:42;;;;;;;13.70;5.40;;;;;;;17.10;63.57;99331.98;107913;1274;97026;-69
2022/08/04 05:36:15;;;;;;;13.40;5.60;;;;;;;17.17;63.60;99332.73;107898;1275;96924;-68
2022/08/04 05:39:05;;;;;;;15.10;5.20;;;;;;;17.28;63.66;99334.27;107862;1276;112653;-69
2022/08/04 05:41:34;;;;;;;12.50;5.40;;;;;;;17.34;63.53;99332.38;107906;1275;97278;-69
2022/08/04 05:44:15;;;;;;;11.10;5.30;;;;;;;17.42;63.43;99330.40;107945;1274;108154;-70
2022/08/04 05:46:46;;;;;;;15.80;5.80;;;;;;;17.51;63.49;99332.13;107948;1274;96969;-68
2022/08/04 05:49:27;;;;;;;12.60;5.80;;;;;;;17.61;63.61;99333.35;107881;1274;97019;-68
2022/08/04 05:52:03;;;;;;;15.90;5.40;;;;;;;17.69;63.60;99329.90;107979;1274;112683;-69
2022/08/04 05:54:34;;;;;;;14.40;6.60;;;;;;;17.78;63.54;99337.22;107991;1274;97076;-68
2022/08/04 05:57:04;;;;;;;13.80;6.00;;;;;;;17.86;63.82;99330.41;107968;1274;109102;-69
2022/08/04 05:59:34;;;;;;;15.60;5.90;;;;;;;17.98;63.51;99331.36;107958;1274;97281;-69
2022/08/04 06:02:03;;;;;;;13.60;5.10;;;;;;;18.07;63.58;99330.56;107963;1274;96980;-69
2022/08/04 06:04:38;;;;;;;17.30;5.70;;;;;;;18.17;63.45;99335.48;107817;1274;111790;-68
2022/08/04 06:07:07;;;;;;;13.00;5.00;;;;;;;18.24;63.49;99332.70;107991;1274;97046;-69
2022/08/04 06:09:34;;;;;;;13.10;5.30;;;;;;;18.36;63.68;99334.06;107960;1274;108784;-69
2022/08/04 06:12:07;;;;;;;13.00;5.10;;;;;;;18.45;63.62;99336.20;107964;1274;97050;-70
2022/08/04 06:14:42;;;;;;;13.60;5.60;;;;;;;18.55;63.72;99338.39;107846;1274;96939;-69
2022/08/04 06:17:14;;;;;;;14.00;5.20;;;;;;;18.65;63.67;99336.95;107866;1275;112736;-70
2022/08/04 06:20:09;;;;;;;10.40;4.90;;;;;;;18.75;63.78;99334.80;107843;1276;97017;-69
2022/08/04 06:22:54;;;;;;;12.90;5.20;;;;;;;18.85;63.72;99331.58;107924;1276;108638;-69
2022/08/04 06:25:25;;;;;;;11.10;5.40;;;;;;;18.96;63.62;99333.02;107790;1276;97017;-69
2022/08/04 06:27:54;;;;;;;12.30;5.20;;;;;;;19.06;63.70;99330.21;107917;1275;96987;-69
2022/08/04 06:30:25;;;;;;;12.80;4.70;;;;;;;19.20;63.74;99331.64;107821;1276;112858;-70
2022/08/04 06:32:55;;;;;;;12.30;4.40;;;;;;;19.31;63.52;99330.09;107902;1276;97029;-69
2022/08/04 06:35:32;;;;;;;9.60;3.80;;;;;;;19.42;63.37;99331.54;107891;1276;107736;-69
2022/08/04 06:38:02;;;;;;;10.60;4.30;;;;;;;19.50;63.37;99336.05;107815;1276;97393;-70
2022/08/04 06:40:31;;;;;;;10.20;4.00;;;;;;;19.60;63.39;99334.84;107843;1276;96971;-70
2022/08/04 06:43:03;;;;;;;11.70;4.50;;;;;;;19.70;63.38;99337.41;107879;1274;113035;-70
2022/08/04 06:45:34;;;;;;;9.50;4.30;;;;;;;19.82;63.35;99339.48;107964;1274;97004;-69
2022/08/04 06:48:04;;;;;;;11.90;4.00;;;;;;;19.94;63.21;99335.42;107848;1274;107797;-69
2022/08/04 06:50:37;;;;;;;12.40;4.20;;;;;;;20.02;63.13;99336.45;107954;1274;96965;-70
2022/08/04 06:53:25;;;;;;;10.70;4.20;;;;;;;20.14;63.24;99330.42;107984;1272;97308;-69
2022/08/04 06:55:55;;;;;;;10.50;5.10;;;;;;;20.23;63.14;99334.79;107934;1274;112467;-69
2022/08/04 06:58:24;;;;;;;13.60;4.80;;;;;;;20.33;63.18;99335.70;107993;1274;97010;-68
2022/08/04 07:00:54;;;;;;;17.30;5.40;;;;;;;20.44;63.04;99329.52;107965;1274;107739;-68
2022/08/04 07:03:22;;;;;;;14.60;5.00;;;;;;;20.51;63.05;99325.23;107962;1273;96972;-69
2022/08/04 07:05:50;;;;;;;13.90;4.80;;;;;;;20.65;62.96;99324.02;107989;1274;96984;-69
2022/08/04 07:08:20;;;;;;;13.60;5.20;;;;;;;20.79;63.04;99321.26;107961;1274;112929;-69
2022/08/04 07:10:48;;;;;;;13.70;5.10;;;;;;;20.94;62.90;99325.60;107974;1274;97076;-68
2022/08/04 07:13:17;;;;;;;12.00;4.50;;;;;;;21.63;62.01;99317.45;107963;1274;107025;-69
2022/08/04 07:15:46;;;;;;;10.50;4.90;;;;;;;23.08;60.80;99311.63;107881;1276;97053;-69
2022/08/04 07:18:15;;;;;;;15.10;5.30;;;;;;;24.77;60.68;99313.89;107949;1274;96964;-69
2022/08/04 07:20:44;;;;;;;11.10;4.20;;;;;;;26.34;60.33;99306.70;107957;1274;112832;-69
2022/08/04 07:23:16;;;;;;;10.60;4.20;;;;;;;27.92;59.84;99308.80;107936;1276;97537;-70
2022/08/04 07:25:53;;;;;;;11.60;3.80;;;;;;;29.47;59.89;99309.89;107842;1274;107883;-70
2022/08/04 07:28:38;;;;;;;;;;;;;;;31.05;59.19;99303.79;108018;1274;97022;-70
2022/08/04 07:31:09;;;;;;;8.30;3.50;;;;;;;32.51;58.90;99309.26;107899;1274;97038;-70
2022/08/04 07:33:58;;;;;;;9.60;3.40;;;;;;;34.12;58.53;99309.73;108019;1274;112467;-69
2022/08/04 07:36:47;;;;;;;7.40;3.20;;;;;;;35.37;57.89;99306.20;108012;1274;97393;-70
2022/08/04 07:39:18;;;;;;;7.10;3.00;;;;;;;36.61;57.95;99311.91;108003;1274;107881;-71
2022/08/04 07:41:58;;;;;;;10.70;3.40;;;;;;;37.84;57.07;99315.41;108009;1274;97029;-70
2022/08/04 07:44:30;;;;;;;7.90;3.00;;;;;;;39.03;56.86;99324.60;107990;1274;96979;-69
2022/08/04 07:47:04;;;;;;;7.90;3.20;;;;;;;39.84;55.69;99320.50;108000;1274;112834;-71
2022/08/04 07:49:32;;;;;;;8.60;2.80;;;;;;;40.49;55.03;99320.94;107898;1274;97516;-71
2022/08/04 07:52:22;;;;;;;8.30;2.90;;;;;;;41.29;54.00;99320.03;107982;1274;107629;-70
2022/08/04 07:54:51;;;;;;;6.00;2.90;;;;;;;42.19;53.67;99321.16;107917;1276;96983;-71
2022/08/04 07:57:19;;;;;;;5.70;2.60;;;;;;;43.02;52.94;99318.04;108001;1274;96992;-71
2022/08/04 08:00:09;;;;;;;10.30;3.70;;;;;;;43.70;51.41;99315.67;108007;1274;112504;-70
2022/08/04 08:02:38;;;;;;;6.10;3.90;;;;;;;44.34;50.50;99318.25;108005;1274;97567;-70
2022/08/04 08:05:08;;;;;;;7.20;3.10;;;;;;;44.71;49.76;99312.69;107873;1275;107681;-70
2022/08/04 08:07:37;;;;;;;3.80;2.10;;;;;;;45.26;49.15;99309.40;107993;1274;97012;-71
2022/08/04 08:10:17;;;;;;;3.80;2.00;;;;;;;45.70;47.83;99308.56;107999;1274;96978;-70
2022/08/04 08:12:46;;;;;;;5.10;1.90;;;;;;;46.19;47.11;99309.09;107994;1274;112694;-71
2022/08/04 08:15:19;;;;;;;5.10;2.10;;;;;;;46.63;46.19;99308.12;107955;1276;97587;-71
2022/08/04 08:17:47;;;;;;;4.90;2.30;;;;;;;47.00;45.38;99309.13;107907;1276;107648;-70
2022/08/04 08:20:28;;;;;;;;;;;;;;;47.02;44.10;99314.11;107970;1275;96940;-72
2022/08/04 08:22:58;;;;;;;2.20;2.00;;;;;;;47.03;43.02;99311.08;107933;1275;98504;-72
2022/08/04 08:25:26;;;;;;;3.80;2.50;;;;;;;47.08;43.20;99309.23;107993;1274;113530;-70
2022/08/04 08:27:54;;;;;;;5.90;2.60;;;;;;;47.29;42.10;99314.65;108018;1274;97438;-71
2022/08/04 08:30:26;;;;;;;8.20;3.70;;;;;;;47.44;40.82;99310.62;107997;1274;107774;-71
2022/08/04 08:33:01;;;;;;;6.70;2.50;;;;;;;47.54;40.39;99313.73;108000;1274;97350;-71
2022/08/04 08:35:40;;;;;;;6.50;2.60;;;;;;;47.90;39.60;99309.11;108014;1274;97032;-71
2022/08/04 08:38:42;;;;;;;4.20;2.20;;;;;;;48.28;38.82;99308.11;107991;1274;103997;-70
2022/08/04 08:41:27;;;;;;;6.90;2.10;;;;;;;48.03;36.94;99308.52;108002;1274;97453;-71
2022/08/04 08:44:23;;;;;;;5.70;2.50;;;;;;;47.62;36.19;99311.27;107922;1274;99060;-70
2022/08/04 08:47:38;;;;;;;9.10;2.40;;;;;;;47.47;35.19;99316.20;107871;1276;97431;-71
2022/08/04 08:50:50;;;;;;;4.70;2.10;;;;;;;47.67;34.90;99309.23;107968;1276;96904;-71
2022/08/04 08:53:31;;;;;;;4.00;1.90;;;;;;;47.98;34.23;99306.95;108007;1274;104062;-71
2022/08/04 08:56:25;;;;;;;5.50;2.20;;;;;;;48.06;33.18;99306.59;108019;1274;97440;-71
2022/08/04 08:59:19;;;;;;;4.00;1.50;;;;;;;47.62;32.46;99318.50;107988;1274;107728;-71
2022/08/04 09:02:14;;;;;;;5.90;2.10;;;;;;;47.37;31.87;99316.19;107997;1274;97386;-70
2022/08/04 09:05:32;;;;;;;5.80;2.40;;;;;;;47.40;31.22;99318.69;108021;1274;96974;-71
2022/08/04 09:08:18;;;;;;;8.60;2.20;;;;;;;47.36;30.48;99318.76;107526;1276;112438;-71
2022/08/04 09:10:54;;;;;;;4.20;2.00;;;;;;;47.36;30.31;99317.23;108018;1274;97451;-71
2022/08/04 09:13:29;;;;;;;3.30;2.10;;;;;;;47.45;29.64;99323.05;107940;1275;107768;-72
2022/08/04 09:16:03;;;;;;;3.40;1.70;;;;;;;47.37;29.00;99324.41;107929;1276;97363;-71
2022/08/04 09:19:01;;;;;;;6.50;2.10;;;;;;;47.47;28.98;99324.88;108017;1274;96934;-70
2022/08/04 09:21:36;;;;;;;3.10;2.10;;;;;;;47.54;28.31;99319.53;108007;1274;112782;-70
2022/08/04 09:24:23;;;;;;;4.50;1.90;;;;;;;47.80;28.07;99317.61;108022;1274;98688;-70
2022/08/04 09:27:17;;;;;;;4.40;2.00;;;;;;;47.87;27.53;99308.71;107902;1274;98985;-71
2022/08/04 09:30:02;;;;;;;5.50;2.10;;;;;;;47.61;27.18;99316.77;107903;1276;96975;-71
2022/08/04 09:32:55;;;;;;;3.70;1.70;;;;;;;47.26;26.79;99311.18;107913;1276;96995;-70
2022/08/04 09:35:44;;;;;;;3.20;1.80;;;;;;;47.46;26.36;99312.61;107898;1276;112742;-71
2022/08/04 09:38:34;;;;;;;5.00;2.00;;;;;;;47.49;26.19;99309.02;107949;1276;97425;-71
2022/08/04 09:41:14;;;;;;;3.50;1.90;;;;;;;47.20;25.51;99306.90;107862;1276;107843;-71
2022/08/04 09:44:32;;;;;;;4.00;2.00;;;;;;;46.72;25.38;99301.91;107953;1274;96981;-71
2022/08/04 09:47:45;;;;;;;2.00;1.80;;;;;;;46.36;24.70;99296.41;108013;1274;96978;-71
2022/08/04 09:50:30;;;;;;;4.10;2.20;;;;;;;46.25;24.71;99289.90;107969;1274;112741;-71
2022/08/04 09:53:20;;;;;;;7.60;1.70;;;;;;;46.03;24.35;99295.13;107994;1274;97423;-71
2022/08/04 09:55:56;;;;;;;4.90;1.80;;;;;;;45.81;24.27;99291.60;107956;1275;107728;-71
2022/08/04 09:58:59;;;;;;;2.00;1.80;;;;;;;45.90;23.99;99286.48;107977;1274;97040;-71
2022/08/04 10:01:30;;;;;;;2.10;1.70;;;;;;;45.89;23.89;99281.77;107951;1275;96989;-70
2022/08/04 10:04:00;;;;;;;2.70;1.60;;;;;;;45.77;23.31;99278.52;107988;1274;113000;-71
2022/08/04 10:06:56;;;;;;;7.40;2.10;;;;;;;44.98;23.32;99278.63;107986;1274;97004;-71
2022/08/04 10:09:44;;;;;;;7.30;3.70;;;;;;;44.38;23.15;99277.35;107940;1275;107607;-71
2022/08/04 10:12:24;;;;;;;3.70;1.80;;;;;;;43.71;22.85;99279.89;107982;1274;96972;-70
2022/08/04 10:15:05;;;;;;;2.70;1.60;;;;;;;42.79;22.93;99282.30;107985;1274;97010;-69
2022/08/04 10:17:47;;;;;;;9.90;1.80;;;;;;;42.05;22.38;99284.33;107969;1274;112811;-70
2022/08/04 10:20:19;;;;;;;3.50;2.00;;;;;;;41.35;22.46;99280.02;108000;1274;97546;-70
2022/08/04 10:23:22;;;;;;;4.70;1.80;;;;;;;40.79;22.35;99284.79;107972;1274;106949;-70
2022/08/04 10:26:33;;;;;;;7.30;2.20;;;;;;;39.88;22.20;99282.35;107674;1276;96987;-70
2022/08/04 10:29:11;;;;;;;3.80;1.60;;;;;;;39.18;22.49;99279.95;107879;1274;96950;-70
2022/08/04 10:31:48;;;;;;;6.20;1.90;;;;;;;38.82;22.41;99274.51;107998;1274;112372;-72
2022/08/04 10:34:23;;;;;;;3.40;2.10;;;;;;;38.31;22.24;99268.67;107983;1274;97447;-70
2022/08/04 10:37:20;;;;;;;4.80;2.00;;;;;;;37.77;22.35;99266.95;107973;1274;107411;-70
2022/08/04 10:43:04;;;;;;;4.80;2.00;;;;;;;36.56;22.46;99274.48;107972;1274;97001;-69
2022/08/04 10:46:09;;;;;;;3.60;2.10;;;;;;;36.22;22.67;99267.13;107960;1274;113177;-70
2022/08/04 10:48:56;;;;;;;3.60;1.80;;;;;;;35.94;22.82;99263.71;107993;1274;96962;-71
2022/08/04 10:51:35;;;;;;;2.80;2.00;;;;;;;35.71;22.57;99263.06;107860;1274;107813;-71
2022/08/04 10:54:46;;;;;;;5.60;1.90;;;;;;;35.11;22.46;99259.59;107999;1274;96998;-70
2022/08/04 10:57:32;;;;;;;5.70;1.90;;;;;;;34.59;22.87;99258.95;108000;1274;96917;-70
2022/08/04 11:00:13;;;;;;;7.40;1.90;;;;;;;34.33;22.90;99263.56;107959;1272;112845;-70
2022/08/04 11:02:50;;;;;;;2.10;1.20;;;;;;;34.12;22.83;99261.85;107996;1274;96974;-69
2022/08/04 11:05:28;;;;;;;2.20;1.70;;;;;;;33.95;22.96;99258.89;107967;1274;107897;-69
2022/08/04 11:08:02;;;;;;;2.30;1.80;;;;;;;33.90;23.41;99257.72;107852;1274;97054;-70
2022/08/04 11:10:45;;;;;;;4.10;1.80;;;;;;;33.83;23.23;99255.83;107901;1274;96994;-70
2022/08/04 11:13:20;;;;;;;3.80;2.00;;;;;;;33.71;23.45;99253.22;107897;1275;113270;-69
2022/08/04 11:16:02;;;;;;;6.30;1.70;;;;;;;33.66;23.63;99258.59;107862;1275;97426;-70
2022/08/04 11:18:48;;;;;;;5.10;1.70;;;;;;;33.55;23.50;99247.48;107922;1276;107827;-69
2022/08/04 11:21:24;;;;;;;4.50;1.80;;;;;;;33.40;23.77;99239.16;107845;1276;96948;-70
2022/08/04 11:24:01;;;;;;;4.30;1.90;;;;;;;33.22;23.96;99246.48;107675;1276;97012;-70
2022/08/04 11:26:48;;;;;;;4.60;1.80;;;;;;;33.06;24.22;99242.66;107949;1274;112741;-70
2022/08/04 11:29:34;;;;;;;3.40;1.80;;;;;;;32.77;23.85;99238.58;107934;1275;97458;-70
2022/08/04 11:32:04;;;;;;;7.40;2.10;;;;;;;32.45;24.09;99236.55;107936;1275;107737;-69
2022/08/04 11:34:34;;;;;;;2.10;1.80;;;;;;;32.38;24.49;99234.86;107923;1275;97372;-70
2022/08/04 11:37:12;;;;;;;2.50;1.70;;;;;;;32.32;24.32;99234.88;107964;1276;97039;-70
2022/08/04 11:39:52;;;;;;;4.10;2.10;;;;;;;32.24;24.40;99236.42;107679;1276;112712;-70
2022/08/04 11:42:36;;;;;;;5.30;2.10;;;;;;;32.18;24.59;99227.47;107871;1276;97483;-70
2022/08/04 11:45:15;;;;;;;5.10;1.90;;;;;;;32.15;24.67;99226.27;107941;1276;107548;-69
2022/08/04 11:47:54;;;;;;;2.90;1.70;;;;;;;32.13;24.78;99225.70;107877;1275;97013;-68
2022/08/04 11:50:47;;;;;;;2.70;1.90;;;;;;;32.14;24.88;99231.30;107889;1276;96925;-69
2022/08/04 11:53:27;;;;;;;4.40;1.70;;;;;;;32.06;24.97;99223.27;107937;1275;111748;-69
2022/08/04 11:56:08;;;;;;;8.10;2.10;;;;;;;32.00;25.08;99219.92;107957;1275;97401;-69
2022/08/04 11:58:39;;;;;;;2.80;1.50;;;;;;;31.98;25.20;99223.13;107922;1275;107838;-70
2022/08/04 12:01:10;;;;;;;3.30;1.50;;;;;;;31.93;25.28;99218.77;107919;1275;96988;-70
2022/08/04 12:04:04;;;;;;;6.10;1.30;;;;;;;31.85;25.32;99217.89;107937;1275;96958;-69
2022/08/04 12:06:47;;;;;;;6.40;1.60;;;;;;;31.82;25.57;99216.92;107943;1276;112881;-69
2022/08/04 12:09:45;;;;;;;3.70;1.70;;;;;;;31.77;25.55;99209.97;107879;1275;97500;-70
2022/08/04 12:12:37;;;;;;;2.40;1.40;;;;;;;31.76;25.86;99211.05;107849;1276;107636;-69
2022/08/04 12:15:25;;;;;;;4.80;2.10;;;;;;;31.81;25.99;99209.37;107904;1275;96945;-69
2022/08/04 12:18:23;;;;;;;4.10;1.60;;;;;;;31.81;25.80;99209.66;107882;1276;97071;-69
2022/08/04 12:20:59;;;;;;;4.20;1.60;;;;;;;31.81;25.95;99216.30;107972;1274;112328;-70
2022/08/04 12:23:38;;;;;;;2.40;1.60;;;;;;;31.66;25.82;99205.64;107870;1275;97485;-69
2022/08/04 12:26:13;;;;;;;5.40;1.80;;;;;;;31.58;26.05;99203.88;107985;1274;107861;-70
2022/08/04 12:28:45;;;;;;;2.70;1.80;;;;;;;31.52;26.29;99212.35;107996;1275;96997;-69
2022/08/04 12:31:44;;;;;;;8.50;2.10;;;;;;;31.50;26.29;99205.17;107996;1274;96909;-69